createdAt,value
2023-02-15T00:01:11.818Z,39.08
2023-02-15T00:04:22.274Z,33.65
2023-02-15T00:07:26.179Z,32.70
2023-02-15T00:10:29.714Z,36.05
2023-02-15T00:13:43.533Z,39.70
2023-02-15T00:16:46.846Z,37.58
2023-02-15T00:19:49.817Z,36.45
2023-02-15T00:22:53.513Z,34.17
2023-02-15T00:26:11.273Z,43.30
2023-02-15T00:29:19.938Z,80.07
2023-02-15T00:32:23.570Z,59.17
2023-02-15T00:35:28.320Z,52.25
2023-02-15T00:38:32.543Z,50.28
2023-02-15T00:41:36.368Z,100.63
2023-02-15T00:44:40.096Z,100.28
2023-02-15T00:47:43.064Z,118.18
2023-02-15T00:50:54.664Z,94.03
2023-02-15T00:53:57.621Z,98.93
2023-02-15T00:57:00.553Z,92.72
2023-02-15T01:00:04.845Z,81.60
2023-02-15T01:03:08.598Z,84.70
2023-02-15T01:06:13.412Z,100.65
2023-02-15T01:09:16.405Z,70.80
2023-02-15T01:12:22.098Z,67.90
2023-02-15T01:15:25.907Z,79.63
2023-02-15T01:18:30.057Z,76.90
2023-02-15T01:21:35.856Z,77.45
2023-02-15T01:24:39.964Z,82.68
2023-02-15T01:27:43.291Z,76.85
2023-02-15T01:30:49.203Z,84.45
2023-02-15T01:33:53.218Z,93.57
2023-02-15T01:36:56.073Z,88.43
2023-02-15T01:39:59.300Z,70.70
2023-02-15T01:43:02.562Z,71.70
2023-02-15T01:46:05.699Z,97.10
2023-02-15T01:49:19.637Z,94.85
2023-02-15T01:52:24.455Z,94.65
2023-02-15T01:55:32.365Z,102.07
2023-02-15T01:58:36.981Z,114.40
2023-02-15T02:01:40.641Z,104.10
2023-02-15T02:04:49.476Z,120.93
2023-02-15T02:07:59.091Z,114.95
2023-02-15T02:11:03.193Z,130.05
2023-02-15T02:14:06.608Z,123.13
2023-02-15T02:17:18.668Z,134.35
2023-02-15T02:20:49.309Z,141.20
2023-02-15T02:24:13.823Z,159.68
2023-02-15T02:27:35.421Z,162.10
2023-02-15T02:31:09.223Z,136.82
2023-02-15T02:34:36.859Z,136.20
2023-02-15T02:37:47.390Z,121.38
2023-02-15T02:40:58.854Z,107.95
2023-02-15T02:44:32.471Z,115.55
2023-02-15T02:47:50.721Z,103.53
2023-02-15T02:50:54.686Z,104.03
2023-02-15T02:54:01.934Z,98.43
2023-02-15T02:57:10.724Z,76.78
2023-02-15T03:00:17.210Z,59.08
2023-02-15T03:03:44.996Z,51.83
2023-02-15T03:11:25.400Z,41.63
2023-02-15T03:14:32.457Z,37.58
2023-02-15T03:41:27.243Z,33.92
2023-02-15T03:44:51.350Z,38.67
2023-02-15T03:48:08.140Z,35.35
2023-02-15T03:51:41.633Z,38.17
2023-02-15T03:55:04.911Z,41.15
2023-02-15T03:58:36.713Z,41.88
2023-02-15T04:02:15.507Z,39.03
2023-02-15T04:05:27.005Z,39.38
2023-02-15T04:08:55.183Z,45.50
2023-02-15T04:12:05.132Z,39.70
2023-02-15T04:15:37.104Z,31.02
2023-02-15T04:19:07.442Z,29.60
2023-02-15T04:22:35.913Z,25.20
2023-02-15T04:25:45.453Z,28.73
2023-02-15T04:28:59.299Z,24.42
2023-02-15T04:35:43.999Z,28.70
2023-02-15T04:38:55.387Z,30.65
2023-02-15T04:42:06.867Z,31.15
2023-02-15T04:45:20.408Z,27.02
2023-02-15T04:48:33.436Z,26.33
2023-02-15T04:51:42.761Z,26.63
2023-02-15T04:54:53.338Z,23.70
2023-02-15T04:58:02.679Z,24.30
2023-02-15T05:01:13.432Z,16.50
2023-02-15T05:04:23.343Z,21.40
2023-02-15T05:07:33.972Z,21.00
2023-02-15T05:10:43.414Z,18.48
2023-02-15T05:13:53.360Z,23.92
2023-02-15T05:17:04.750Z,23.98
2023-02-15T05:20:14.707Z,24.90
2023-02-15T05:23:24.661Z,24.63
2023-02-15T05:26:51.912Z,26.33
2023-02-15T05:30:03.030Z,26.20
2023-02-15T05:33:09.707Z,27.52
2023-02-15T05:36:19.329Z,24.70
2023-02-15T05:39:29.281Z,26.42
2023-02-15T05:42:41.893Z,26.17
2023-02-15T05:45:54.948Z,24.20
2023-02-15T05:49:06.303Z,28.00
2023-02-15T05:52:15.956Z,25.90
2023-02-15T05:55:39.842Z,23.05
2023-02-15T05:58:51.214Z,19.33
2023-02-15T06:02:02.438Z,22.65
2023-02-15T06:05:12.865Z,23.02
2023-02-15T06:08:24.159Z,18.52
2023-02-15T06:11:35.034Z,21.30
2023-02-15T06:14:46.115Z,17.60
2023-02-15T06:17:56.884Z,18.25
2023-02-15T06:21:09.492Z,15.18
2023-02-15T06:24:22.434Z,14.43
2023-02-15T06:27:27.054Z,12.38
2023-02-15T06:30:31.028Z,13.32
2023-02-15T06:33:40.810Z,11.15
2023-02-15T06:36:52.405Z,11.25
2023-02-15T06:40:03.896Z,11.05
2023-02-15T06:43:12.820Z,8.32
2023-02-15T06:46:21.774Z,6.90
2023-02-15T06:49:32.318Z,7.15
2023-02-15T06:52:42.499Z,8.07
2023-02-15T06:55:52.239Z,6.75
2023-02-15T06:59:03.499Z,8.73
2023-02-15T07:02:12.969Z,7.00
2023-02-15T07:05:20.950Z,6.00
2023-02-15T07:11:58.365Z,5.97
2023-02-15T07:15:09.262Z,5.80
2023-02-15T07:18:17.590Z,5.78
2023-02-15T07:21:28.741Z,7.13
2023-02-15T07:24:39.002Z,7.15
2023-02-15T07:27:47.827Z,6.50
2023-02-15T07:30:56.499Z,5.75
2023-02-15T07:34:04.070Z,6.43
2023-02-15T07:40:18.029Z,6.55
2023-02-15T07:43:24.681Z,8.15
2023-02-15T07:46:35.104Z,8.57
2023-02-15T07:49:43.076Z,7.93
2023-02-15T07:52:51.681Z,7.30
2023-02-15T07:55:59.227Z,6.55
2023-02-15T07:59:05.251Z,6.90
2023-02-15T08:02:14.066Z,8.27
2023-02-15T08:05:23.185Z,7.13
2023-02-15T08:08:36.640Z,7.40
2023-02-15T08:11:42.556Z,8.02
2023-02-15T08:14:47.542Z,6.90
2023-02-15T08:17:52.131Z,7.85
2023-02-15T08:20:57.745Z,8.25
2023-02-15T08:24:04.392Z,7.32
2023-02-15T08:27:14.445Z,7.00
2023-02-15T08:30:18.973Z,8.02
2023-02-15T08:33:28.003Z,8.00
2023-02-15T08:36:34.325Z,7.35
2023-02-15T08:39:39.730Z,8.63
2023-02-15T08:42:46.285Z,10.27
2023-02-15T08:45:51.447Z,7.80
2023-02-15T08:48:57.009Z,8.32
2023-02-15T08:52:04.895Z,9.40
2023-02-15T08:55:11.644Z,8.55
2023-02-15T08:58:18.667Z,9.85
2023-02-15T09:01:34.681Z,10.60
2023-02-15T09:04:42.557Z,10.65
2023-02-15T09:07:51.190Z,11.07
2023-02-15T09:11:11.274Z,10.00
2023-02-15T09:14:23.591Z,10.85
2023-02-15T09:17:33.460Z,10.70
2023-02-15T09:20:43.176Z,11.95
2023-02-15T09:23:53.536Z,26.80
2023-02-15T09:27:01.962Z,27.30
2023-02-15T09:30:11.381Z,22.17
2023-02-15T09:33:18.273Z,17.92
2023-02-15T09:36:39.218Z,13.87
2023-02-15T09:39:49.346Z,11.75
2023-02-15T09:43:23.802Z,11.90
2023-02-15T09:46:54.932Z,11.35
2023-02-15T09:50:21.172Z,11.95
2023-02-15T09:54:04.803Z,9.65
2023-02-15T09:57:34.831Z,9.15
2023-02-15T10:01:06.392Z,7.90
2023-02-15T10:04:49.191Z,6.97
2023-02-15T10:08:29.280Z,7.60
2023-02-15T10:12:18.651Z,6.80
2023-02-15T10:15:56.055Z,7.70
2023-02-15T10:19:26.264Z,7.13
2023-02-15T10:23:11.771Z,7.45
2023-02-15T10:26:27.452Z,6.07
2023-02-15T10:29:43.043Z,6.47
2023-02-15T10:33:14.500Z,9.55
2023-02-15T10:36:31.104Z,8.75
2023-02-15T10:39:41.687Z,6.65
2023-02-15T10:43:06.149Z,8.50
2023-02-15T10:46:35.033Z,7.65
2023-02-15T10:50:03.292Z,11.13
2023-02-15T10:53:34.628Z,27.63
2023-02-15T10:57:06.750Z,27.23
2023-02-15T11:00:33.762Z,14.73
2023-02-15T11:04:06.532Z,33.10
2023-02-15T11:07:25.487Z,41.42
2023-02-15T11:10:50.362Z,46.45
2023-02-15T11:13:59.592Z,48.65
2023-02-15T11:17:16.918Z,33.60
2023-02-15T11:20:26.265Z,36.85
2023-02-15T11:23:35.939Z,26.00
2023-02-15T11:26:50.307Z,28.77
2023-02-15T11:30:15.289Z,32.78
2023-02-15T11:33:26.960Z,33.63
2023-02-15T11:36:35.721Z,46.10
2023-02-15T11:39:45.873Z,37.88
2023-02-15T11:43:06.110Z,28.13
2023-02-15T11:52:34.924Z,26.73
2023-02-15T11:55:40.475Z,28.80
2023-02-15T11:58:49.561Z,28.90
2023-02-15T12:01:53.219Z,34.15
2023-02-15T12:05:15.412Z,33.70
2023-02-15T12:11:45.169Z,32.33
2023-02-15T12:14:51.673Z,37.10
2023-02-15T12:17:56.652Z,31.30
2023-02-15T12:21:09.490Z,36.47
2023-02-15T12:24:33.985Z,50.15
2023-02-15T12:27:38.960Z,43.95
2023-02-15T12:30:45.357Z,37.05
2023-02-15T12:33:48.801Z,40.10
2023-02-15T12:37:01.932Z,47.38
2023-02-15T12:40:33.914Z,61.45
2023-02-15T12:43:46.224Z,65.00
2023-02-15T12:47:03.162Z,62.10
2023-02-15T12:50:39.490Z,51.92
2023-02-15T12:53:45.306Z,47.40
2023-02-15T12:56:49.695Z,42.10
2023-02-15T13:00:00.081Z,49.35
2023-02-15T13:03:05.105Z,48.15
2023-02-15T13:06:10.728Z,48.95
2023-02-15T13:09:22.090Z,56.92
2023-02-15T13:12:30.004Z,44.75
2023-02-15T13:15:46.640Z,45.63
2023-02-15T13:18:54.161Z,46.38
2023-02-15T13:21:59.113Z,45.30
2023-02-15T13:25:11.749Z,39.53
2023-02-15T13:28:20.162Z,41.88
2023-02-15T13:31:30.131Z,40.97
2023-02-15T13:34:41.712Z,36.15
2023-02-15T13:38:03.452Z,35.03
2023-02-15T13:41:14.896Z,45.20
2023-02-15T13:44:52.261Z,42.88
2023-02-15T13:48:22.528Z,36.20
2023-02-15T13:51:46.896Z,33.42
2023-02-15T13:55:21.865Z,34.40
2023-02-15T13:58:51.931Z,30.70
2023-02-15T14:02:13.569Z,31.92
2023-02-15T14:05:32.593Z,29.45
2023-02-15T14:09:02.633Z,30.48
2023-02-15T14:12:27.540Z,30.48
2023-02-15T14:15:46.721Z,31.42
2023-02-15T14:19:11.334Z,22.20
2023-02-15T14:22:14.558Z,21.92
2023-02-15T14:25:37.041Z,26.48
2023-02-15T14:28:51.153Z,38.75
2023-02-15T14:31:58.145Z,36.50
2023-02-15T14:35:05.004Z,21.77
2023-02-15T14:38:11.432Z,33.17
2023-02-15T14:41:28.738Z,27.53
2023-02-15T14:44:43.949Z,27.00
2023-02-15T14:47:57.676Z,24.77
2023-02-15T14:51:02.485Z,24.85
2023-02-15T14:54:06.579Z,23.35
2023-02-15T14:57:11.970Z,28.08
2023-02-15T15:00:37.374Z,46.25
2023-02-15T15:03:55.075Z,56.03
2023-02-15T15:07:26.198Z,59.58
2023-02-15T15:10:46.106Z,35.50
2023-02-15T15:14:02.389Z,37.53
2023-02-15T15:17:09.064Z,57.03
2023-02-15T15:20:18.262Z,55.60
2023-02-15T15:23:23.701Z,48.30
2023-02-15T15:26:38.373Z,72.20
2023-02-15T15:29:42.957Z,61.05
2023-02-15T15:32:55.675Z,55.13
2023-02-15T15:36:34.732Z,58.38
2023-02-15T15:39:59.822Z,57.70
2023-02-15T15:43:33.610Z,80.15
2023-02-15T15:47:21.424Z,91.20
2023-02-15T15:50:24.732Z,86.50
2023-02-15T15:53:32.194Z,83.55
2023-02-15T15:56:38.868Z,85.82
2023-02-15T15:59:47.231Z,77.15
2023-02-15T16:02:54.919Z,51.42
2023-02-15T16:09:19.615Z,44.88
2023-02-15T16:12:23.984Z,26.27
2023-02-15T16:15:36.530Z,25.50
2023-02-15T16:18:43.886Z,26.58
2023-02-15T16:21:50.060Z,18.85
2023-02-15T16:25:48.072Z,20.70
2023-02-15T16:28:53.457Z,17.05
2023-02-15T16:32:01.422Z,16.38
2023-02-15T16:35:05.594Z,21.42
2023-02-15T16:38:12.550Z,18.45
2023-02-15T16:41:19.279Z,19.77
2023-02-15T16:44:23.006Z,21.15
2023-02-15T16:47:27.501Z,20.27
2023-02-15T16:50:38.208Z,19.35
2023-02-15T16:53:41.751Z,20.85
2023-02-15T16:56:47.761Z,18.42
2023-02-15T16:59:53.910Z,16.20
2023-02-15T17:03:01.568Z,18.02
2023-02-15T17:06:05.626Z,14.98
2023-02-15T17:09:23.903Z,19.98
2023-02-15T17:12:57.401Z,22.33
2023-02-15T17:16:01.565Z,25.52
2023-02-15T17:19:52.355Z,23.90
2023-02-15T17:22:56.571Z,26.90
2023-02-15T17:26:02.761Z,17.02
2023-02-15T17:29:36.613Z,28.52
2023-02-15T17:32:40.090Z,20.70
2023-02-15T17:35:43.545Z,22.17
2023-02-15T17:38:59.382Z,20.65
2023-02-15T17:42:02.759Z,18.15
2023-02-15T17:45:06.571Z,20.70
2023-02-15T17:48:17.372Z,24.25
2023-02-15T17:51:22.549Z,22.88
2023-02-15T17:54:44.998Z,21.15
2023-02-15T17:57:48.356Z,17.65
2023-02-15T18:01:16.404Z,18.67
2023-02-15T18:04:38.769Z,18.10
2023-02-15T18:08:00.896Z,16.85
2023-02-15T18:11:22.485Z,12.13
2023-02-15T18:14:26.262Z,17.40
2023-02-15T18:17:41.497Z,19.45
2023-02-15T18:20:45.530Z,20.05
2023-02-15T18:23:49.764Z,16.70
2023-02-15T18:26:55.205Z,16.30
2023-02-15T18:29:58.733Z,19.05
2023-02-15T18:33:03.304Z,18.80
2023-02-15T18:36:12.121Z,18.60
2023-02-15T18:39:41.653Z,12.35
2023-02-15T18:42:49.663Z,13.57
2023-02-15T18:45:54.063Z,19.27
2023-02-15T18:48:57.292Z,19.67
2023-02-15T18:52:00.748Z,19.10
2023-02-15T18:55:08.899Z,26.92
2023-02-15T18:58:20.761Z,22.65
2023-02-15T19:01:24.525Z,26.75
2023-02-15T19:04:27.816Z,26.48
2023-02-15T19:07:33.150Z,26.15
2023-02-15T19:10:37.266Z,30.70
2023-02-15T19:13:40.959Z,23.42
2023-02-15T19:16:44.742Z,27.70
2023-02-15T19:19:48.943Z,28.73
2023-02-15T19:22:54.874Z,25.15
2023-02-15T19:25:58.223Z,18.05
2023-02-15T19:29:03.648Z,25.90
2023-02-15T19:32:07.610Z,20.92
2023-02-15T19:35:32.576Z,22.20
2023-02-15T19:38:38.654Z,23.23
2023-02-15T19:41:43.332Z,27.65
2023-02-15T19:44:46.516Z,23.48
2023-02-15T19:47:52.729Z,23.52
2023-02-15T19:50:57.718Z,23.65
2023-02-15T19:54:02.277Z,22.90
2023-02-15T19:57:06.222Z,25.30
2023-02-15T20:00:26.270Z,24.98
2023-02-15T20:03:30.372Z,24.85
2023-02-15T20:06:33.779Z,30.13
2023-02-15T20:09:41.379Z,33.08
2023-02-15T20:15:48.616Z,27.17
2023-02-15T20:18:52.949Z,18.15
2023-02-15T20:21:57.655Z,31.55
2023-02-15T20:25:02.863Z,21.85
2023-02-15T20:28:07.020Z,20.60
2023-02-15T20:31:17.317Z,21.80
2023-02-15T20:34:20.377Z,19.23
2023-02-15T20:37:27.270Z,32.22
2023-02-15T20:40:33.990Z,22.88
2023-02-15T20:43:37.481Z,43.25
2023-02-15T20:46:41.459Z,8.93
2023-02-15T20:49:45.137Z,22.67
2023-02-15T20:52:49.861Z,28.63
2023-02-15T20:55:53.328Z,25.15
2023-02-15T20:58:57.350Z,21.42
2023-02-15T21:02:01.330Z,35.00
2023-02-15T21:05:07.034Z,23.20
2023-02-15T21:08:16.286Z,23.98
2023-02-15T21:11:24.647Z,23.42
2023-02-15T21:14:29.964Z,20.60
2023-02-15T21:17:34.322Z,25.55
2023-02-15T21:20:40.205Z,34.92
2023-02-15T21:23:45.469Z,19.70
2023-02-15T21:26:49.272Z,29.70
2023-02-15T21:29:52.856Z,24.10
2023-02-15T21:32:56.813Z,24.42
2023-02-15T21:36:01.027Z,24.30
2023-02-15T21:39:04.577Z,24.13
2023-02-15T21:42:30.014Z,26.55
2023-02-15T21:45:52.264Z,27.55
2023-02-15T21:48:55.538Z,31.38
2023-02-15T21:52:14.062Z,39.50
2023-02-15T21:55:18.350Z,30.88
2023-02-15T21:58:26.648Z,26.02
2023-02-15T22:01:30.689Z,26.95
2023-02-15T22:04:34.106Z,24.98
2023-02-15T22:07:37.513Z,19.70
2023-02-15T22:10:41.487Z,24.00
2023-02-15T22:13:45.889Z,20.25
2023-02-15T22:16:49.790Z,19.60
2023-02-15T22:19:54.034Z,17.40
2023-02-15T22:22:58.005Z,18.67
2023-02-15T22:26:08.716Z,15.23
2023-02-15T22:29:19.409Z,20.83
2023-02-15T22:32:25.714Z,20.80
2023-02-15T22:35:33.640Z,22.73
2023-02-15T22:38:38.037Z,12.85
2023-02-15T22:41:42.907Z,11.52
2023-02-15T22:44:47.760Z,15.90
2023-02-15T22:47:56.925Z,16.65
2023-02-15T22:51:06.523Z,15.60
2023-02-15T22:54:12.294Z,17.42
2023-02-15T22:57:28.256Z,21.90
2023-02-15T23:00:41.179Z,18.85
2023-02-15T23:03:46.113Z,22.92
2023-02-15T23:06:49.664Z,21.83
2023-02-15T23:09:58.874Z,19.85
2023-02-15T23:13:26.099Z,20.95
2023-02-15T23:16:34.417Z,19.00
2023-02-15T23:19:41.540Z,18.27
2023-02-15T23:22:47.296Z,18.80
2023-02-15T23:25:52.847Z,19.65
2023-02-15T23:29:01.704Z,19.48
2023-02-15T23:32:14.658Z,20.35
2023-02-15T23:35:21.277Z,21.50
2023-02-15T23:38:31.293Z,15.40
2023-02-15T23:41:39.959Z,14.27
2023-02-15T23:44:47.875Z,16.60
2023-02-15T23:48:12.345Z,16.02
2023-02-15T23:51:17.187Z,12.90
2023-02-15T23:54:26.244Z,11.98
2023-02-15T23:57:32.090Z,19.08
